52.5°F
Current conditions from King Hill
Updated every 5 minutes
 
  Saturday October 25, 2014

Station Historical Data
Daily Summary for April 3, 2012 Units:  Metric    English   Both
« Previous Day
Next Day »
Daily Weekly Monthly Yearly Custom
  High: Low: Average:
Temperature: 10 °C -2.7 °C 3 °C
Dew Point: -4.9 °C -12 °C -9.4 °C
Humidity: 54% 29% 40%
Wind Speed: 17.7km/h 0km/h 5km/h
Wind Gust: 33.8km/h - -
Wind- - WSW
Pressure: 1013.1 hPa 1005.6 hPa -
Precipitation: 0 mm    
Historical Graphs
 
 
Tabular Data for April 3, 2012
Time Temperature Dew Point Pressure Wind Wind Speed Wind Gust Humidity Daily Rainfall
00:00 -0.1 °C -10.3 °C 1010.4 hPa Calm   1.6 km/h 46% 0.5 mm
00:09 -0.1 °C -9.8 °C 1010.4 hPa Calm   8 km/h 48% 0 mm
00:14 -0.2 °C -9.9 °C 1010.4 hPa Calm   9.7 km/h 48% 0 mm
00:19 -0.3 °C -9.8 °C 1010 hPa NNE 1.6 km/h 9.7 km/h 49% 0 mm
00:24 -0.3 °C -10.2 °C 1010.4 hPa NNE 1.6 km/h 12.9 km/h 47% 0 mm
00:30 -0.3 °C -10.3 °C 1010.4 hPa Calm   12.9 km/h 47% 0 mm
00:34 -0.3 °C -10 °C 1010.4 hPa Calm   12.9 km/h 48% 0 mm
00:39 -0.4 °C -10.7 °C 1010.4 hPa NNE 1.6 km/h 12.9 km/h 46% 0 mm
00:44 -0.4 °C -10.7 °C 1010.4 hPa NNE 3.2 km/h 11.3 km/h 46% 0 mm
00:49 -0.3 °C -10.3 °C 1010.4 hPa Calm   12.9 km/h 47% 0 mm
00:54 -0.4 °C -10.7 °C 1010.4 hPa Calm   12.9 km/h 46% 0 mm
00:59 -0.6 °C -11.1 °C 1010.7 hPa Calm   4.8 km/h 45% 0 mm
01:04 -0.6 °C -10.3 °C 1010.4 hPa Calm   4.8 km/h 48% 0 mm
01:09 -0.7 °C -11.8 °C 1010.4 hPa NNE 1.6 km/h 9.7 km/h 43% 0 mm
01:14 -0.8 °C -11.2 °C 1010.7 hPa Calm   9.7 km/h 45% 0 mm
01:19 -0.8 °C -11.3 °C 1010.7 hPa Calm   6.4 km/h 45% 0 mm
01:24 -0.9 °C -11.1 °C 1010.7 hPa North 1.6 km/h 8 km/h 46% 0 mm
01:29 -1 °C -11.4 °C 1010.7 hPa NNE 1.6 km/h 8 km/h 45% 0 mm
01:34 -0.9 °C -11.7 °C 1010.4 hPa NNE 1.6 km/h 12.9 km/h 44% 0 mm
01:39 -0.9 °C -11.3 °C 1010.4 hPa NNE 3.2 km/h 12.9 km/h 45% 0 mm
01:45 -0.9 °C -11.3 °C 1010.4 hPa Calm   12.9 km/h 45% 0 mm
01:54 -1.1 °C -11 °C 1010.4 hPa Calm   8 km/h 47% 0 mm
01:59 -1.2 °C -11.4 °C 1010.4 hPa Calm   8 km/h 46% 0 mm
02:04 -1.3 °C -11.2 °C 1010.4 hPa Calm   3.2 km/h 47% 0 mm
02:09 -1.3 °C -11.7 °C 1010.4 hPa Calm   9.7 km/h 45% 0 mm
02:14 -1.3 °C -10.9 °C 1010.4 hPa Calm   9.7 km/h 48% 0 mm
02:19 -1.4 °C -11.3 °C 1010.4 hPa Calm   11.3 km/h 47% 0 mm
02:24 -1.4 °C -11.6 °C 1010.4 hPa Calm   11.3 km/h 46% 0 mm
02:30 -1.4 °C -11.3 °C 1010.4 hPa Calm   8 km/h 47% 0 mm
02:39 -1.7 °C -11.3 °C 1010 hPa Calm   6.4 km/h 48% 0 mm
02:44 -1.7 °C -11.8 °C 1010 hPa NNE 3.2 km/h 14.5 km/h 46% 0 mm
02:50 -1.5 °C -11.6 °C 1010 hPa Calm   17.7 km/h 46% 0 mm
03:00 -1.5 °C -11.3 °C 1010 hPa Calm   11.3 km/h 47% 0 mm
03:09 -1.4 °C -11.8 °C 1010 hPa North 3.2 km/h 11.3 km/h 45% 0 mm
03:14 -1.3 °C -11.7 °C 1010 hPa NW 1.6 km/h 12.9 km/h 45% 0 mm
03:19 -1.3 °C -11.2 °C 1010 hPa NNE 1.6 km/h 12.9 km/h 47% 0 mm
03:25 -1.4 °C -11.1 °C 1010.4 hPa North 3.2 km/h 11.3 km/h 48% 0 mm
03:34 -1.6 °C -11.4 °C 1010.4 hPa Calm   8 km/h 47% 0 mm
03:39 -1.6 °C -11.2 °C 1010.4 hPa Calm   8 km/h 48% 0 mm
03:44 -1.7 °C -11.8 °C 1010.4 hPa Calm   8 km/h 46% 0 mm
03:49 -1.8 °C -11.9 °C 1010.4 hPa Calm   6.4 km/h 46% 0 mm
03:54 -1.8 °C -11.9 °C 1010.4 hPa NNW 1.6 km/h 11.3 km/h 46% 0 mm
03:59 -1.9 °C -12 °C 1010.4 hPa NNW 3.2 km/h 11.3 km/h 46% 0 mm
04:04 -1.9 °C -11.7 °C 1010.4 hPa North 3.2 km/h 12.9 km/h 47% 0 mm
04:09 -1.8 °C -11.9 °C 1010.4 hPa Calm   12.9 km/h 46% 0 mm
04:14 -1.8 °C -11.6 °C 1010.4 hPa North 1.6 km/h 9.7 km/h 47% 0 mm
04:19 -1.9 °C -11.7 °C 1010.4 hPa Calm   9.7 km/h 47% 0 mm
04:24 -2 °C -11.8 °C 1010.4 hPa Calm   8 km/h 47% 0 mm
04:30 -2.1 °C -11.7 °C 1010.7 hPa Calm   8 km/h 48% 0 mm
04:39 -2 °C -11.8 °C 1010.7 hPa NNW 1.6 km/h 14.5 km/h 47% 0 mm
04:44 -2 °C -11.8 °C 1010.7 hPa NNW 1.6 km/h 14.5 km/h 47% 0 mm
04:49 -2 °C -11.6 °C 1011.1 hPa North 3.2 km/h 19.3 km/h 48% 0 mm
04:54 -1.9 °C -11.5 °C 1011.1 hPa Calm   19.3 km/h 48% 0 mm
04:59 -2.1 °C -11.6 °C 1011.1 hPa NW 1.6 km/h 9.7 km/h 48% 0 mm
05:04 -2.1 °C -11.6 °C 1011.1 hPa NNW 1.6 km/h 11.3 km/h 48% 0 mm
05:09 -2.1 °C -11.3 °C 1011.1 hPa NNW 3.2 km/h 14.5 km/h 49% 0 mm
05:14 -2.1 °C -11.4 °C 1011.4 hPa North 3.2 km/h 14.5 km/h 49% 0 mm
05:19 -2.2 °C -11.2 °C 1011.4 hPa NW 1.6 km/h 12.9 km/h 50% 0 mm
05:24 -2.3 °C -11.3 °C 1011.4 hPa Calm   9.7 km/h 50% 0 mm
05:29 -2.3 °C -11.3 °C 1011.4 hPa NNW 1.6 km/h 9.7 km/h 50% 0 mm
05:35 -2.3 °C -11.1 °C 1011.4 hPa Calm   11.3 km/h 51% 0 mm
05:45 -2.3 °C -11.1 °C 1011.4 hPa Calm   11.3 km/h 51% 0 mm
05:50 -2.3 °C -11.3 °C 1011.4 hPa NNW 1.6 km/h 11.3 km/h 50% 0 mm
05:55 -2.4 °C -11.2 °C 1011.7 hPa North 1.6 km/h 11.3 km/h 51% 0 mm
06:04 -2.5 °C -11 °C 1011.7 hPa Calm   12.9 km/h 52% 0 mm
06:09 -2.5 °C -11.3 °C 1011.7 hPa North 1.6 km/h 11.3 km/h 51% 0 mm
06:14 -2.6 °C -11.1 °C 1012.1 hPa Calm   8 km/h 52% 0 mm
06:19 -2.6 °C -11.1 °C 1011.7 hPa NNW 1.6 km/h 6.4 km/h 52% 0 mm
06:24 -2.7 °C -10.9 °C 1012.1 hPa NNW 3.2 km/h 9.7 km/h 53% 0 mm
06:29 -2.6 °C -10.7 °C 1012.1 hPa Calm   9.7 km/h 54% 0 mm
06:34 -2.6 °C -10.8 °C 1012.1 hPa North 1.6 km/h 11.3 km/h 53% 0 mm
06:39 -2.5 °C -10.8 °C 1012.1 hPa North 1.6 km/h 14.5 km/h 53% 0 mm
06:45 -2.4 °C -10.9 °C 1012.1 hPa North 1.6 km/h 14.5 km/h 52% 0 mm
06:54 -2.6 °C -11.1 °C 1012.4 hPa Calm   8 km/h 52% 0 mm
06:59 -2.7 °C -10.7 °C 1012.4 hPa Calm   6.4 km/h 54% 0 mm
07:04 -2.7 °C -11 °C 1012.4 hPa Calm   6.4 km/h 53% 0 mm
07:10 -2.7 °C -11 °C 1012.8 hPa Calm   8 km/h 53% 0 mm
07:19 -2.7 °C -11.2 °C 1012.8 hPa Calm   8 km/h 52% 0 mm
07:24 -2.6 °C -11.4 °C 1012.8 hPa NNE 1.6 km/h 9.7 km/h 51% 0 mm
07:29 -2.4 °C -11.4 °C 1012.8 hPa NNE 1.6 km/h 9.7 km/h 50% 0 mm
07:34 -2.4 °C -11.4 °C 1012.8 hPa NNE 1.6 km/h 9.7 km/h 50% 0 mm
07:39 -2.3 °C -11.3 °C 1012.8 hPa North 1.6 km/h 11.3 km/h 50% 0 mm
07:44 -2.2 °C -11 °C 1012.8 hPa NNE 1.6 km/h 11.3 km/h 51% 0 mm
07:49 -2.1 °C -11.1 °C 1012.8 hPa Calm   12.9 km/h 50% 0 mm
07:54 -2 °C -11.1 °C 1012.8 hPa Calm   12.9 km/h 50% 0 mm
07:59 -1.8 °C -10.9 °C 1013.1 hPa NE 3.2 km/h 11.3 km/h 50% 0 mm
08:04 -1.6 °C -10.6 °C 1013.1 hPa Calm   11.3 km/h 50% 0 mm
08:09 -1.2 °C -10.8 °C 1013.1 hPa Calm   9.7 km/h 48% 0 mm
08:14 -0.7 °C -10.9 °C 1012.8 hPa NNE 1.6 km/h 14.5 km/h 46% 0 mm
08:19 -0.1 °C -10.9 °C 1013.1 hPa Calm   14.5 km/h 44% 0 mm
08:24 0.5 °C -10.1 °C 1013.1 hPa North 3.2 km/h 19.3 km/h 45% 0 mm
08:29 0.8 °C -10.7 °C 1012.8 hPa NNW 6.4 km/h 19.3 km/h 42% 0 mm
08:34 0.8 °C -10.7 °C 1012.8 hPa NNW 4.8 km/h 16.1 km/h 42% 0 mm
08:39 0.7 °C -10.4 °C 1012.8 hPa NW 8 km/h 16.1 km/h 43% 0 mm
08:44 0.8 °C -10.6 °C 1012.8 hPa NE 3.2 km/h 16.1 km/h 42% 0 mm
08:49 1.1 °C -10.4 °C 1013.1 hPa North 6.4 km/h 17.7 km/h 42% 0 mm
08:54 1.2 °C -10.3 °C 1012.8 hPa North 6.4 km/h 17.7 km/h 42% 0 mm
08:59 1.3 °C -9.9 °C 1013.1 hPa North 1.6 km/h 16.1 km/h 43% 0 mm
09:04 1.3 °C -9.6 °C 1013.1 hPa NW 3.2 km/h 14.5 km/h 44% 0 mm
09:09 1.6 °C -9.1 °C 1013.1 hPa NW 1.6 km/h 12.9 km/h 45% 0 mm
09:14 1.7 °C -9.6 °C 1013.1 hPa NNW 1.6 km/h 11.3 km/h 43% 0 mm
09:19 1.5 °C -9.7 °C 1013.1 hPa NW 11.3 km/h 22.5 km/h 43% 0 mm
09:24 1.7 °C -9.6 °C 1012.8 hPa North 4.8 km/h 22.5 km/h 43% 0 mm
09:29 1.9 °C -9.6 °C 1012.8 hPa Calm   16.1 km/h 42% 0 mm
09:34 2.3 °C -9.6 °C 1012.8 hPa NNW 4.8 km/h 16.1 km/h 41% 0 mm
09:39 2.2 °C -10.7 °C 1012.8 hPa NW 14.5 km/h 25.7 km/h 38% 0 mm
09:45 1.9 °C -10.6 °C 1012.8 hPa NNW 6.4 km/h 25.7 km/h 39% 0 mm
09:50 2.2 °C -10 °C 1012.8 hPa North 4.8 km/h 22.5 km/h 40% 0 mm
10:00 2.3 °C -10.9 °C 1012.8 hPa NNW 9.7 km/h 22.5 km/h 37% 0 mm
10:09 2.2 °C -10.7 °C 1012.8 hPa NW 16.1 km/h 30.6 km/h 38% 0 mm
10:14 2.1 °C -10.7 °C 1012.8 hPa NW 11.3 km/h 30.6 km/h 38% 0 mm
10:19 2.4 °C -10.4 °C 1012.8 hPa NNW 6.4 km/h 20.9 km/h 38% 0 mm
10:25 2.3 °C -10.6 °C 1012.8 hPa WNW 14.5 km/h 33.8 km/h 38% 0 mm
10:30 2.4 °C -10.4 °C 1012.8 hPa NW 12.9 km/h 33.8 km/h 38% 0 mm
10:39 2.8 °C -9.8 °C 1012.4 hPa NW 8 km/h 20.9 km/h 39% 0 mm
10:44 3.1 °C -10.2 °C 1012.4 hPa NW 4.8 km/h 19.3 km/h 37% 0 mm
10:54 2.8 °C -10.1 °C 1012.4 hPa NW 12.9 km/h 22.5 km/h 38% 0 mm
10:59 3.2 °C -9.4 °C 1012.4 hPa NNW 6.4 km/h 22.5 km/h 39% 0 mm
11:04 3.6 °C -9.8 °C 1012.4 hPa NNW 4.8 km/h 16.1 km/h 37% 0 mm
11:10 3.8 °C -9.6 °C 1012.4 hPa NW 6.4 km/h 19.3 km/h 37% 0 mm
11:20 3.9 °C -10.2 °C 1012.4 hPa NW 12.9 km/h 25.7 km/h 35% 0 mm
11:29 3.8 °C -9.6 °C 1012.1 hPa NNW 12.9 km/h 25.7 km/h 37% 0 mm
11:34 4 °C -9.1 °C 1012.1 hPa North 4.8 km/h 25.7 km/h 38% 0 mm
11:40 4.2 °C -9.2 °C 1012.1 hPa North 4.8 km/h 17.7 km/h 37% 0 mm
11:45 4.5 °C -9.3 °C 1012.1 hPa NW 11.3 km/h 17.7 km/h 36% 0 mm
11:50 4.4 °C -9.4 °C 1012.1 hPa NNW 9.7 km/h 22.5 km/h 36% 0 mm
11:59 4.4 °C -9 °C 1012.1 hPa NNW 9.7 km/h 20.9 km/h 37% 0 mm
12:04 4.4 °C -9.7 °C 1012.1 hPa NW 16.1 km/h 27.4 km/h 35% 0 mm
12:09 4.1 °C -9.3 °C 1012.1 hPa NW 6.4 km/h 27.4 km/h 37% 0 mm
12:14 4.4 °C -8.3 °C 1012.1 hPa WNW 9.7 km/h 24.1 km/h 39% 0 mm
12:19 5.1 °C -8.7 °C 1012.1 hPa NNW 8 km/h 22.5 km/h 36% 0 mm
12:24 5.1 °C -9.2 °C 1012.1 hPa North 8 km/h 24.1 km/h 35% 0 mm
12:29 5.1 °C -8.7 °C 1011.7 hPa NNW 9.7 km/h 24.1 km/h 36% 0 mm
12:35 5.1 °C -8.8 °C 1011.7 hPa NW 11.3 km/h 17.7 km/h 36% 0 mm
12:40 5 °C -9.6 °C 1011.4 hPa NW 12.9 km/h 20.9 km/h 34% 0 mm
12:49 4.8 °C -10.1 °C 1011.4 hPa NW 17.7 km/h 25.7 km/h 33% 0 mm
12:55 4.8 °C -9.7 °C 1011.4 hPa NNW 9.7 km/h 25.7 km/h 34% 0 mm
13:00 5.4 °C -8.8 °C 1011.4 hPa NNW 8 km/h 19.3 km/h 35% 0 mm
13:05 5.8 °C -10 °C 1011.4 hPa WNW 12.9 km/h 19.3 km/h 31% 0 mm
13:15 5.9 °C -8.8 °C 1011.1 hPa NNW 4.8 km/h 20.9 km/h 34% 0 mm
13:20 6.3 °C -9.2 °C 1011.1 hPa NW 8 km/h 22.5 km/h 32% 0 mm
13:30 6.1 °C -9 °C 1011.1 hPa NNW 6.4 km/h 24.1 km/h 33% 0 mm
13:39 6.3 °C -8.4 °C 1010.7 hPa North 6.4 km/h 25.7 km/h 34% 0 mm
13:45 6.6 °C -8.6 °C 1010.7 hPa NNW 6.4 km/h 17.7 km/h 33% 0 mm
13:55 7.3 °C -8.3 °C 1011.1 hPa NNW 8 km/h 17.7 km/h 32% 0 mm
14:05 6.8 °C -8.8 °C 1011.1 hPa NNW 4.8 km/h 22.5 km/h 32% 0 mm
14:14 7.1 °C -8.9 °C 1011.1 hPa NNW 6.4 km/h 22.5 km/h 31% 0 mm
14:20 7.1 °C -8.9 °C 1011.1 hPa NW 8 km/h 19.3 km/h 31% 0 mm
14:30 7.6 °C -8.4 °C 1010.7 hPa NW 6.4 km/h 16.1 km/h 31% 0 mm
14:39 8 °C -8.6 °C 1010.4 hPa NNW 4.8 km/h 17.7 km/h 30% 0 mm
14:45 8.3 °C -7.4 °C 1010.4 hPa NNW 4.8 km/h 12.9 km/h 32% 0 mm
14:54 8.4 °C -8.2 °C 1010.4 hPa NNW 4.8 km/h 16.1 km/h 30% 0 mm
14:59 8.7 °C -7.9 °C 1010 hPa North 4.8 km/h 16.1 km/h 30% 0 mm
15:04 8.5 °C -7.7 °C 1010 hPa NNW 6.4 km/h 16.1 km/h 31% 0 mm
15:10 8.3 °C -8.2 °C 1010 hPa NNW 6.4 km/h 16.1 km/h 30% 0 mm
15:19 8.5 °C -8.1 °C 1010 hPa NW 4.8 km/h 17.7 km/h 30% 0 mm
15:24 8.2 °C -8.3 °C 1010 hPa NW 8 km/h 17.7 km/h 30% 0 mm
15:30 8.5 °C -8.1 °C 1009.7 hPa North 4.8 km/h 17.7 km/h 30% 0 mm
15:39 9.1 °C -8.1 °C 1009.7 hPa North 4.8 km/h 19.3 km/h 29% 0 mm
15:45 8.9 °C -7.7 °C 1009.7 hPa NNW 4.8 km/h 14.5 km/h 30% 0 mm
15:54 9.6 °C -7.6 °C 1009 hPa NNW 9.7 km/h 19.3 km/h 29% 0 mm
15:59 9.3 °C -7.8 °C 1009.4 hPa North 3.2 km/h 19.3 km/h 29% 0 mm
16:04 9 °C -7.7 °C 1009.4 hPa NNW 6.4 km/h 16.1 km/h 30% 0 mm
16:09 8.6 °C -7.6 °C 1009.4 hPa North 1.6 km/h 19.3 km/h 31% 0 mm
16:14 8.2 °C -8.3 °C 1009 hPa NNW 4.8 km/h 19.3 km/h 30% 0 mm
16:19 8.1 °C -8.4 °C 1009 hPa North 3.2 km/h 11.3 km/h 30% 0 mm
16:24 8.2 °C -7.9 °C 1009 hPa North 1.6 km/h 12.9 km/h 31% 0 mm
16:29 8.6 °C -7.2 °C 1008.7 hPa Calm   12.9 km/h 32% 0 mm
16:34 9.2 °C -7.5 °C 1008.7 hPa Calm   11.3 km/h 30% 0 mm
16:40 9.4 °C -6.8 °C 1008.7 hPa NNE 3.2 km/h 12.9 km/h 31% 0 mm
16:49 9.9 °C -6.8 °C 1008.7 hPa Calm   11.3 km/h 30% 0 mm
16:54 10 °C -7.2 °C 1008.7 hPa North 1.6 km/h 11.3 km/h 29% 0 mm
16:59 9.8 °C -6.9 °C 1008.4 hPa NE 1.6 km/h 20.9 km/h 30% 0 mm
17:04 9.8 °C -6.9 °C 1008.4 hPa Calm   20.9 km/h 30% 0 mm
17:09 9.8 °C -7.4 °C 1008.4 hPa NE 3.2 km/h 11.3 km/h 29% 0 mm
17:15 9.8 °C -6.9 °C 1008.4 hPa North 3.2 km/h 12.9 km/h 30% 0 mm
17:24 10 °C -7.2 °C 1008.4 hPa North 8 km/h 20.9 km/h 29% 0 mm
17:29 9.8 °C -6.9 °C 1008.4 hPa Calm   20.9 km/h 30% 0 mm
17:35 9.5 °C -7.2 °C 1008.4 hPa North 4.8 km/h 17.7 km/h 30% 0 mm
17:44 8.3 °C -7 °C 1008.4 hPa Calm   11.3 km/h 33% 0 mm
17:50 8.2 °C -7.2 °C 1008.7 hPa Calm   6.4 km/h 33% 0 mm
17:59 7.9 °C -7.4 °C 1008.4 hPa Calm   14.5 km/h 33% 0 mm
18:04 7.6 °C -7.3 °C 1008.7 hPa NNW 3.2 km/h 14.5 km/h 34% 0 mm
18:09 7.4 °C -7.1 °C 1008.7 hPa Calm   11.3 km/h 35% 0 mm
18:14 7.4 °C -7.1 °C 1008.7 hPa North 1.6 km/h 9.7 km/h 35% 0 mm
18:19 7.6 °C -7.3 °C 1008.7 hPa Calm   11.3 km/h 34% 0 mm
18:24 7.8 °C -6.7 °C 1008.7 hPa Calm   11.3 km/h 35% 0 mm
18:30 7.9 °C -6.9 °C 1008.7 hPa NNE 1.6 km/h 11.3 km/h 34% 0 mm
18:39 8.1 °C -7.3 °C 1008.7 hPa NE 1.6 km/h 14.5 km/h 33% 0 mm
18:45 8 °C -7.3 °C 1008.7 hPa North 4.8 km/h 12.9 km/h 33% 0 mm
18:55 7.3 °C -6.8 °C 1008.4 hPa North 1.6 km/h 11.3 km/h 36% 0 mm
19:04 6.7 °C -6.6 °C 1008.7 hPa NE 3.2 km/h 12.9 km/h 38% 0 mm
19:09 6.4 °C -6.8 °C 1008.7 hPa Calm   11.3 km/h 38% 0 mm
19:14 6.2 °C -6.7 °C 1008.7 hPa Calm   11.3 km/h 39% 0 mm
19:19 6.1 °C -7.2 °C 1008.4 hPa North 3.2 km/h 16.1 km/h 38% 0 mm
19:24 5.9 °C -7 °C 1008.4 hPa Calm   16.1 km/h 39% 0 mm
19:29 5.8 °C -7.1 °C 1008.4 hPa NNE 1.6 km/h 12.9 km/h 39% 0 mm
19:34 5.9 °C -6.9 °C 1008 hPa Calm   12.9 km/h 39% 0 mm
19:40 6.1 °C -7.2 °C 1008.4 hPa North 1.6 km/h 6.4 km/h 38% 0 mm
19:50 6.2 °C -7.4 °C 1008.4 hPa Calm   6.4 km/h 37% 0 mm
19:55 6.3 °C -7.7 °C 1008.4 hPa NNW 6.4 km/h 14.5 km/h 36% 0 mm
20:05 6.5 °C -7.5 °C 1008.4 hPa NNW 3.2 km/h 14.5 km/h 36% 0 mm
20:15 6.4 °C -7.9 °C 1008.4 hPa NW 3.2 km/h 8 km/h 35% 0 mm
20:24 6.2 °C -8.1 °C 1008.4 hPa Calm   9.7 km/h 35% 0 mm
20:30 6.1 °C -7.8 °C 1008.4 hPa Calm   9.7 km/h 36% 0 mm
20:35 5.9 °C -8.1 °C 1008.4 hPa Calm   8 km/h 36% 0 mm
20:44 5.8 °C -8.2 °C 1008.4 hPa Calm   8 km/h 36% 0 mm
20:50 5.8 °C -8.5 °C 1008.4 hPa Calm   1.6 km/h 35% 0 mm
20:59 5.8 °C -7.7 °C 1008 hPa Calm   1.6 km/h 37% 0 mm
21:04 5.8 °C -7.7 °C 1008 hPa Calm   1.6 km/h 37% 0 mm
21:09 5.8 °C -8.1 °C 1008 hPa Calm   1.6 km/h 36% 0 mm
21:14 5.9 °C -8.4 °C 1008 hPa NNW 1.6 km/h 4.8 km/h 35% 0 mm
21:19 6 °C -8.3 °C 1008 hPa Calm   4.8 km/h 35% 0 mm
21:24 6.1 °C -8.6 °C 1007.7 hPa NNW 1.6 km/h 6.4 km/h 34% 0 mm
21:29 6.2 °C -8.5 °C 1008 hPa Calm   6.4 km/h 34% 0 mm
21:34 6.3 °C -8.4 °C 1007.7 hPa Calm   6.4 km/h 34% 0 mm
21:39 6.3 °C -8 °C 1007.7 hPa Calm   6.4 km/h 35% 0 mm
21:45 6.3 °C -8.1 °C 1007.3 hPa Calm   3.2 km/h 35% 0 mm
21:54 6.1 °C -7.8 °C 1007 hPa Calm     36% 0 mm
21:59 6 °C -7.9 °C 1007 hPa Calm     36% 0 mm
22:04 5.8 °C -8.1 °C 1007 hPa Calm     36% 0 mm
22:14 5.5 °C -8.8 °C 1007 hPa NNW 1.6 km/h 8 km/h 35% 0 mm
22:19 5.6 °C -8.7 °C 1007 hPa Calm   8 km/h 35% 0 mm
22:24 5.6 °C -8.3 °C 1007 hPa Calm   8 km/h 36% 0 mm
22:29 5.6 °C -8.7 °C 1007 hPa Calm   3.2 km/h 35% 0 mm
22:35 5.5 °C -8.1 °C 1007 hPa Calm   1.6 km/h 37% 0 mm
22:45 5.5 °C -8.8 °C 1006.7 hPa Calm   1.6 km/h 35% 0 mm
22:54 5.6 °C -8.3 °C 1006.3 hPa Calm   4.8 km/h 36% 0 mm
22:59 5.7 °C -8.6 °C 1006.3 hPa West 1.6 km/h 6.4 km/h 35% 0 mm
23:04 5.7 °C -7.6 °C 1006.7 hPa Calm   6.4 km/h 38% 0 mm
23:10 5.6 °C -7.9 °C 1006.7 hPa West 1.6 km/h 6.4 km/h 37% 0 mm
23:19 5.6 °C -7.9 °C 1006.7 hPa Calm   9.7 km/h 37% 0 mm
23:24 5.6 °C -7.6 °C 1006.3 hPa WSW 1.6 km/h 8 km/h 38% 0 mm
23:29 5.6 °C -7.3 °C 1006.3 hPa Calm   8 km/h 39% 0 mm
23:35 5.6 °C -6.7 °C 1006.3 hPa Calm   4.8 km/h 41% 0 mm
23:44 5.3 °C -5.9 °C 1006.3 hPa Calm   3.2 km/h 44% 0 mm
23:50 5.3 °C -5.7 °C 1006 hPa Calm   1.6 km/h 45% 0 mm
23:59 5.2 °C -4.9 °C 1005.6 hPa Calm     48% 0 mm
Westford Weather
Compliments of Weather Underground

 
 
Current Radar Loop:

Copyright © WestfordWeather.net 2007-2014. All rights reserved.